createdAt,value
2022-08-05T00:03:01.735Z,51.63
2022-08-05T00:06:29.256Z,51.67
2022-08-05T00:09:40.036Z,52.01
2022-08-05T00:12:56.734Z,52.11
2022-08-05T00:16:05.482Z,52.48
2022-08-05T00:19:16.018Z,52.50
2022-08-05T00:22:23.677Z,52.29
2022-08-05T00:25:45.713Z,52.00
2022-08-05T00:28:54.076Z,52.12
2022-08-05T00:32:12.837Z,52.12
2022-08-05T00:35:33.443Z,52.78
2022-08-05T00:38:42.806Z,52.54
2022-08-05T00:41:55.776Z,52.60
2022-08-05T00:45:03.778Z,52.80
2022-08-05T00:48:12.509Z,53.10
2022-08-05T00:51:51.481Z,53.17
2022-08-05T00:54:48.109Z,53.33
2022-08-05T00:57:59.029Z,53.01
2022-08-05T01:01:08.863Z,53.42
2022-08-05T01:04:20.139Z,53.85
2022-08-05T01:07:34.398Z,53.46
2022-08-05T01:10:52.141Z,53.65
2022-08-05T01:14:08.856Z,54.06
2022-08-05T01:17:22.943Z,53.81
2022-08-05T01:20:38.446Z,54.20
2022-08-05T01:24:14.112Z,54.52
2022-08-05T01:27:36.117Z,54.19
2022-08-05T01:31:03.226Z,54.34
2022-08-05T01:34:15.311Z,54.63
2022-08-05T01:37:37.979Z,54.82
2022-08-05T01:40:53.532Z,55.13
2022-08-05T01:44:09.901Z,54.83
2022-08-05T01:47:20.922Z,55.24
2022-08-05T01:50:32.302Z,55.49
2022-08-05T01:53:57.121Z,55.74
2022-08-05T01:58:09.771Z,55.93
2022-08-05T02:00:43.054Z,56.25
2022-08-05T02:03:54.934Z,56.40
2022-08-05T02:07:07.835Z,57.17
2022-08-05T02:10:17.649Z,57.54
2022-08-05T02:13:48.787Z,57.00
2022-08-05T02:17:05.414Z,57.94
2022-08-05T02:20:23.048Z,57.93
2022-08-05T02:23:37.635Z,58.31
2022-08-05T02:26:53.843Z,58.69
2022-08-05T02:30:04.230Z,58.64
2022-08-05T02:33:16.564Z,58.96
2022-08-05T03:31:57.335Z,61.46
2022-08-05T03:35:06.383Z,62.13
2022-08-05T03:38:16.289Z,62.04
2022-08-05T03:41:33.220Z,61.49
2022-08-05T03:44:45.973Z,62.23
2022-08-05T03:47:56.802Z,61.98
2022-08-05T03:52:49.352Z,61.73
2022-08-05T03:55:54.711Z,61.27
2022-08-05T03:58:19.195Z,61.22
2022-08-05T04:01:32.184Z,60.66
2022-08-05T04:04:41.943Z,60.10
2022-08-05T04:07:58.707Z,59.31
2022-08-05T04:11:09.875Z,59.25
2022-08-05T04:14:19.647Z,58.54
2022-08-05T04:17:56.325Z,58.10
2022-08-05T04:21:05.899Z,57.71
2022-08-05T04:24:19.319Z,57.28
2022-08-05T04:27:42.217Z,56.82
2022-08-05T04:30:51.801Z,56.45
2022-08-05T04:34:19.980Z,55.82
2022-08-05T04:38:01.312Z,55.14
2022-08-05T04:40:54.609Z,54.63
2022-08-05T04:44:01.919Z,54.07
2022-08-05T04:47:20.101Z,53.65
2022-08-05T04:50:37.376Z,52.90
2022-08-05T04:53:57.852Z,52.51
2022-08-05T04:57:08.819Z,51.87
2022-08-05T05:00:17.937Z,51.41
2022-08-05T05:03:25.109Z,51.24
2022-08-05T05:06:49.333Z,50.55
2022-08-05T05:10:06.667Z,49.43
2022-08-05T05:13:16.969Z,48.98
2022-08-05T05:16:24.790Z,48.36
2022-08-05T05:19:44.150Z,47.58
2022-08-05T05:22:54.535Z,47.32
2022-08-05T05:26:01.808Z,47.24
2022-08-05T05:29:10.134Z,46.61
2022-08-05T05:32:22.196Z,45.62
2022-08-05T05:35:34.207Z,45.30
2022-08-05T05:38:45.367Z,44.59
2022-08-05T05:41:54.894Z,44.66
2022-08-05T05:45:03.193Z,43.64
2022-08-05T05:48:10.729Z,43.25
2022-08-05T05:51:24.556Z,43.38
2022-08-05T05:54:50.341Z,43.07
2022-08-05T05:58:02.022Z,42.41
2022-08-05T06:01:12.945Z,41.77
2022-08-05T06:04:22.648Z,41.69
2022-08-05T06:07:41.558Z,41.53
2022-08-05T06:10:52.542Z,40.55
2022-08-05T06:14:00.678Z,40.13
2022-08-05T06:17:22.076Z,40.32
2022-08-05T06:20:33.234Z,40.01
2022-08-05T06:23:44.633Z,39.49
2022-08-05T06:26:53.300Z,38.76
2022-08-05T06:30:04.259Z,38.02
2022-08-05T06:33:33.104Z,38.03
2022-08-05T06:36:57.904Z,37.97
2022-08-05T06:40:10.986Z,37.66
2022-08-05T06:43:58.839Z,37.33
2022-08-05T06:46:46.972Z,36.78
2022-08-05T06:50:00.726Z,36.28
2022-08-05T06:53:22.410Z,36.24
2022-08-05T06:56:34.887Z,36.07
2022-08-05T06:59:55.094Z,36.43
2022-08-05T07:03:05.449Z,35.97
2022-08-05T07:06:19.264Z,35.75
2022-08-05T07:09:32.357Z,35.82
2022-08-05T07:13:02.395Z,35.75
2022-08-05T07:18:02.125Z,35.52
2022-08-05T07:23:26.319Z,35.38
2022-08-05T07:26:36.979Z,35.15
2022-08-05T07:30:23.976Z,34.98
2022-08-05T07:33:15.910Z,34.93
2022-08-05T07:36:25.016Z,34.65
2022-08-05T07:40:04.225Z,34.63
2022-08-05T07:43:07.375Z,34.25
2022-08-05T07:46:24.984Z,34.28
2022-08-05T07:49:33.127Z,34.05
2022-08-05T07:52:49.301Z,34.02
2022-08-05T07:56:06.210Z,34.11
2022-08-05T07:59:38.653Z,33.16
2022-08-05T08:03:14.707Z,33.13
2022-08-05T08:06:16.073Z,32.77
2022-08-05T08:09:24.410Z,32.62
2022-08-05T08:12:49.540Z,32.40
2022-08-05T08:16:42.917Z,31.96
2022-08-05T08:20:22.150Z,31.86
2022-08-05T08:22:56.184Z,31.80
2022-08-05T08:26:04.628Z,31.39
2022-08-05T08:29:29.432Z,31.14
2022-08-05T08:32:41.721Z,31.00
2022-08-05T08:35:53.166Z,31.10
2022-08-05T08:39:17.651Z,30.55
2022-08-05T08:42:34.187Z,30.59
2022-08-05T08:45:48.104Z,30.16
2022-08-05T08:50:05.840Z,30.09
2022-08-05T08:52:31.143Z,29.98
2022-08-05T08:56:03.919Z,29.15
2022-08-05T08:59:14.901Z,28.84
2022-08-05T09:02:31.245Z,29.09
2022-08-05T09:06:07.917Z,28.78
2022-08-05T09:09:09.720Z,28.70
2022-08-05T09:12:20.481Z,28.72
2022-08-05T09:15:37.108Z,28.06
2022-08-05T09:18:44.586Z,27.92
2022-08-05T09:22:22.290Z,27.72
2022-08-05T09:25:24.388Z,27.61
2022-08-05T09:28:50.630Z,26.94
2022-08-05T09:32:42.299Z,26.29
2022-08-05T09:35:36.683Z,26.20
2022-08-05T09:38:58.539Z,25.69
2022-08-05T09:42:08.404Z,25.64
2022-08-05T09:46:06.413Z,25.01
2022-08-05T09:49:06.454Z,24.57
2022-08-05T09:52:25.655Z,24.53
2022-08-05T09:55:57.087Z,24.52
2022-08-05T09:59:08.609Z,24.27
2022-08-05T10:02:31.431Z,23.19
2022-08-05T10:05:41.788Z,23.09
2022-08-05T10:08:50.300Z,22.86
2022-08-05T10:12:18.683Z,23.25
2022-08-05T10:15:41.378Z,22.79
2022-08-05T10:18:48.978Z,23.18
2022-08-05T10:21:59.014Z,23.10
2022-08-05T10:25:07.629Z,23.56
2022-08-05T10:28:19.151Z,23.86
2022-08-05T10:33:02.201Z,23.56
2022-08-05T10:35:07.200Z,23.76
2022-08-05T10:38:15.971Z,23.92
2022-08-05T10:41:44.901Z,24.02
2022-08-05T10:44:57.633Z,24.14
2022-08-05T10:48:52.741Z,23.78
2022-08-05T10:52:19.889Z,23.51
2022-08-05T10:55:27.979Z,23.30
2022-08-05T10:58:36.194Z,22.95
2022-08-05T11:02:14.162Z,23.27
2022-08-05T11:05:39.674Z,23.02
2022-08-05T11:09:24.499Z,22.96
2022-08-05T11:12:54.385Z,23.10
2022-08-05T11:16:47.730Z,22.47
2022-08-05T11:20:17.529Z,22.23
2022-08-05T11:24:02.502Z,22.40
2022-08-05T11:27:45.763Z,22.15
2022-08-05T11:31:53.979Z,22.31
2022-08-05T11:35:06.380Z,22.89
2022-08-05T11:38:29.464Z,22.56
2022-08-05T11:42:02.010Z,22.51
2022-08-05T11:45:14.283Z,22.00
2022-08-05T11:48:34.480Z,21.55
2022-08-05T11:51:49.534Z,21.84
2022-08-05T11:54:59.037Z,21.23
2022-08-05T11:58:14.574Z,21.36
2022-08-05T12:01:25.478Z,21.23
2022-08-05T12:04:41.518Z,21.20
2022-08-05T12:08:03.610Z,21.12
2022-08-05T12:11:21.972Z,21.01
2022-08-05T12:14:39.203Z,20.87
2022-08-05T12:18:03.823Z,20.63
2022-08-05T12:21:20.208Z,20.63
2022-08-05T12:24:28.328Z,19.69
2022-08-05T12:27:53.199Z,20.02
2022-08-05T12:31:02.078Z,20.10
2022-08-05T12:34:20.669Z,19.68
2022-08-05T12:37:31.941Z,19.65
2022-08-05T12:40:45.024Z,19.31
2022-08-05T12:43:55.312Z,19.77
2022-08-05T12:47:04.878Z,18.60
2022-08-05T12:50:19.752Z,18.41
2022-08-05T12:53:37.104Z,18.02
2022-08-05T12:56:51.584Z,18.33
2022-08-05T13:01:58.204Z,18.26
2022-08-05T13:03:33.580Z,18.10
2022-08-05T13:06:51.473Z,18.84
2022-08-05T13:10:01.114Z,19.17
2022-08-05T13:13:09.796Z,19.39
2022-08-05T13:16:48.823Z,18.65
2022-08-05T13:20:06.511Z,18.72
2022-08-05T13:23:16.354Z,18.20
2022-08-05T13:26:30.192Z,18.44
2022-08-05T13:29:38.089Z,18.43
2022-08-05T13:32:50.584Z,18.35
2022-08-05T13:36:01.954Z,18.07
2022-08-05T13:40:13.638Z,17.87
2022-08-05T13:42:44.033Z,17.58
2022-08-05T13:45:51.637Z,17.53
2022-08-05T13:49:00.673Z,17.56
2022-08-05T13:52:17.116Z,17.89
2022-08-05T13:55:41.956Z,17.83
2022-08-05T13:59:06.201Z,17.37
2022-08-05T14:02:29.764Z,17.12
2022-08-05T14:06:04.942Z,17.32
2022-08-05T14:09:08.399Z,17.33
2022-08-05T14:12:17.387Z,17.44
2022-08-05T14:16:07.500Z,17.03
2022-08-05T14:19:04.432Z,17.06
2022-08-05T14:22:12.623Z,17.13
2022-08-05T14:25:22.465Z,17.17
2022-08-05T14:28:31.576Z,17.80
2022-08-05T14:32:02.333Z,17.98
2022-08-05T14:35:11.381Z,17.68
2022-08-05T14:38:33.212Z,18.46
2022-08-05T14:42:02.416Z,18.60
2022-08-05T14:45:12.486Z,18.78
2022-08-05T14:48:32.285Z,19.05
2022-08-05T14:51:42.425Z,19.55
2022-08-05T14:54:53.444Z,19.79
2022-08-05T14:58:01.068Z,20.06
2022-08-05T15:01:24.185Z,20.20
2022-08-05T15:04:47.979Z,20.46
2022-08-05T15:08:06.447Z,20.75
2022-08-05T15:11:24.687Z,20.89
2022-08-05T15:14:51.978Z,21.04
2022-08-05T15:18:03.908Z,21.18
2022-08-05T15:21:20.871Z,21.53
2022-08-05T15:24:31.457Z,21.53
2022-08-05T15:27:38.930Z,21.73
2022-08-05T15:30:53.393Z,21.62
2022-08-05T15:34:18.340Z,21.51
2022-08-05T15:38:32.421Z,21.35
2022-08-05T15:41:22.937Z,21.71
2022-08-05T15:44:26.346Z,21.62
2022-08-05T15:47:35.885Z,21.63
2022-08-05T15:50:46.445Z,26.62
2022-08-05T15:53:53.918Z,28.56
2022-08-05T15:56:59.653Z,29.89
2022-08-05T16:00:13.042Z,30.79
2022-08-05T16:03:24.457Z,31.43
2022-08-05T16:06:33.068Z,31.79
2022-08-05T16:09:42.150Z,32.11
2022-08-05T16:12:51.592Z,32.83
2022-08-05T16:15:59.905Z,32.96
2022-08-05T16:19:07.582Z,33.48
2022-08-05T16:22:17.611Z,34.24
2022-08-05T16:25:34.204Z,34.57
2022-08-05T16:28:42.724Z,35.29
2022-08-05T16:31:57.136Z,36.04
2022-08-05T16:35:10.352Z,36.60
2022-08-05T16:38:25.610Z,38.39
2022-08-05T16:42:14.525Z,39.87
2022-08-05T16:46:02.751Z,41.46
2022-08-05T16:48:35.430Z,42.06
2022-08-05T16:51:51.191Z,42.60
2022-08-05T16:55:02.140Z,43.31
2022-08-05T16:58:12.196Z,43.16
2022-08-05T17:01:22.276Z,43.49
2022-08-05T17:04:32.151Z,43.33
2022-08-05T17:07:47.419Z,42.28
2022-08-05T17:11:04.344Z,41.71
2022-08-05T17:14:34.065Z,41.82
2022-08-05T17:17:44.277Z,43.42
2022-08-05T17:20:51.895Z,44.41
2022-08-05T17:24:04.456Z,45.78
2022-08-05T17:27:16.147Z,47.32
2022-08-05T17:30:28.383Z,49.36
2022-08-05T17:33:48.235Z,51.28
2022-08-05T17:36:58.480Z,51.60
2022-08-05T17:40:10.329Z,52.87
2022-08-05T17:43:18.719Z,53.63
2022-08-05T17:46:46.323Z,54.15
2022-08-05T17:50:04.234Z,54.87
2022-08-05T17:53:18.776Z,55.76
2022-08-05T17:56:29.199Z,56.03
2022-08-05T17:59:37.056Z,57.73
2022-08-05T18:02:47.622Z,57.51
2022-08-05T18:05:55.359Z,59.28
2022-08-05T18:09:09.537Z,60.04
2022-08-05T18:12:24.053Z,60.95
2022-08-05T18:15:34.476Z,61.74
2022-08-05T18:18:47.791Z,61.81
2022-08-05T18:22:09.353Z,62.84
2022-08-05T18:25:18.667Z,63.73
2022-08-05T18:28:28.432Z,63.75
2022-08-05T18:31:36.023Z,64.25
2022-08-05T18:34:43.659Z,64.65
2022-08-05T18:37:53.460Z,64.93
2022-08-05T18:41:57.139Z,65.86
2022-08-05T18:44:35.264Z,65.63
2022-08-05T18:47:59.606Z,66.44
2022-08-05T18:52:04.016Z,67.29
2022-08-05T18:54:52.793Z,67.79
2022-08-05T18:58:03.258Z,67.37
2022-08-05T19:01:17.792Z,68.32
2022-08-05T19:04:29.473Z,68.00
2022-08-05T19:07:45.886Z,68.53
2022-08-05T19:10:54.626Z,69.14
2022-08-05T19:14:15.234Z,70.78
2022-08-05T19:17:59.194Z,71.85
2022-08-05T19:20:59.794Z,71.46
2022-08-05T19:24:13.068Z,72.19
2022-08-05T19:27:20.676Z,72.15
2022-08-05T19:30:29.335Z,72.20
2022-08-05T19:33:38.143Z,72.45
2022-08-05T19:36:48.192Z,71.88
2022-08-05T19:39:56.919Z,72.68
2022-08-05T19:43:07.310Z,72.21
2022-08-05T19:46:16.735Z,73.34
2022-08-05T19:49:38.411Z,72.58
2022-08-05T19:52:47.831Z,73.35
2022-08-05T19:56:15.368Z,73.67
2022-08-05T19:59:55.177Z,73.54
2022-08-05T20:02:51.279Z,74.71
2022-08-05T20:05:59.493Z,74.58
2022-08-05T20:09:22.960Z,74.72
2022-08-05T20:12:32.990Z,75.79
2022-08-05T20:15:52.465Z,76.08
2022-08-05T20:19:04.577Z,76.85
2022-08-05T20:22:12.867Z,78.69
2022-08-05T20:25:20.463Z,79.30
2022-08-05T20:28:31.078Z,79.29
2022-08-05T20:31:50.384Z,80.49
2022-08-05T20:35:01.321Z,79.99
2022-08-05T20:38:08.584Z,81.58
2022-08-05T20:41:17.636Z,81.49
2022-08-05T20:44:38.014Z,84.04
2022-08-05T20:47:45.679Z,84.92
2022-08-05T20:50:56.103Z,85.61
2022-08-05T20:54:03.467Z,85.77
2022-08-05T20:57:14.248Z,87.45
2022-08-05T21:00:44.400Z,87.38
2022-08-05T21:03:50.440Z,88.43
2022-08-05T21:06:58.795Z,88.12
2022-08-05T21:10:09.517Z,88.83
2022-08-05T21:13:26.396Z,90.24
2022-08-05T21:16:49.113Z,89.41
2022-08-05T21:19:57.642Z,88.57
2022-08-05T21:23:07.646Z,89.67
2022-08-05T21:26:15.052Z,90.35
2022-08-05T21:29:23.576Z,90.55
2022-08-05T21:32:34.354Z,90.29
2022-08-05T21:35:43.737Z,90.78
2022-08-05T21:39:04.491Z,92.33
2022-08-05T21:42:30.648Z,92.30
2022-08-05T21:45:56.636Z,92.21
2022-08-05T21:49:08.095Z,92.43
2022-08-05T21:52:27.856Z,93.14
2022-08-05T21:56:00.821Z,93.42
2022-08-05T21:59:07.821Z,93.91
2022-08-05T22:02:15.798Z,94.32
2022-08-05T22:05:27.257Z,93.44
2022-08-05T22:08:35.347Z,95.41
2022-08-05T22:11:46.769Z,94.44
2022-08-05T22:14:54.835Z,94.31
2022-08-05T22:18:01.954Z,94.63
2022-08-05T22:21:19.445Z,94.60
2022-08-05T22:24:56.760Z,94.65
2022-08-05T22:28:08.250Z,94.35
2022-08-05T22:31:19.250Z,95.17
2022-08-05T22:34:28.742Z,95.85
2022-08-05T22:37:58.563Z,96.69
2022-08-05T22:41:07.009Z,95.82
2022-08-05T22:44:19.179Z,96.34
2022-08-05T22:47:29.075Z,96.99
2022-08-05T22:50:37.843Z,97.01
2022-08-05T22:53:55.133Z,97.55
2022-08-05T22:57:03.538Z,97.23
2022-08-05T23:00:18.258Z,97.58
2022-08-05T23:03:58.195Z,97.67
2022-08-05T23:06:55.770Z,98.68
2022-08-05T23:10:04.682Z,98.29
2022-08-05T23:13:15.412Z,98.57
2022-08-05T23:16:44.131Z,100.00
2022-08-05T23:19:56.236Z,99.52
2022-08-05T23:23:08.056Z,99.67
2022-08-05T23:26:16.165Z,99.68
2022-08-05T23:29:25.922Z,100.00
2022-08-05T23:32:33.921Z,100.00
2022-08-05T23:35:42.098Z,100.00
2022-08-05T23:38:49.535Z,100.00
2022-08-05T23:41:57.523Z,100.00
2022-08-05T23:45:14.140Z,100.00
2022-08-05T23:48:23.487Z,100.00
2022-08-05T23:51:52.520Z,100.00
2022-08-05T23:55:05.457Z,100.00
2022-08-05T23:58:32.156Z,100.00
